Time;durP1;ratioP1;P1;durP2;ratioP2;P2;SDS_P1;SDS_P2;PMS_P1;PMS_P2;Temp;Humidity;BMP_temperature;BMP_pressure;BME280_temperature;BME280_humidity;BME280_pressure;Samples;Min_cycle;Max_cycle;Signal;HPM_P1;HPM_P2
2022/06/05 00:01:16;;;;;;;7.00;4.70;;;;;;;25.67;52.06;94849.88;5069895;28;20222;-80
2022/06/05 00:03:52;;;;;;;9.07;4.75;;;;;;;25.67;52.02;94846.47;5050295;28;20182;-80
2022/06/05 00:06:26;;;;;;;5.13;4.57;;;;;;;25.64;52.38;94841.69;5050176;28;20273;-80
2022/06/05 00:09:08;;;;;;;5.20;4.43;;;;;;;25.63;52.37;94840.09;5049820;28;20190;-81
2022/06/05 00:11:45;;;;;;;5.57;4.78;;;;;;;25.62;52.22;94841.13;5050049;28;20690;-80
2022/06/05 00:14:11;;;;;;;7.78;4.97;;;;;;;25.60;52.27;94846.56;5050033;28;20202;-80
2022/06/05 00:16:40;;;;;;;8.10;5.03;;;;;;;25.58;52.45;94843.41;5050000;28;20191;-80
2022/06/05 00:19:07;;;;;;;7.40;4.30;;;;;;;25.57;52.68;94835.78;5049741;28;20214;-80
2022/06/05 00:21:34;;;;;;;6.10;4.85;;;;;;;25.56;52.81;94842.03;5049773;28;20697;-81
2022/06/05 00:24:01;;;;;;;6.57;4.05;;;;;;;25.52;52.58;94839.06;5050079;28;20194;-79
2022/06/05 00:26:33;;;;;;;7.88;4.88;;;;;;;25.50;52.78;94835.88;5050179;28;20195;-79
2022/06/05 00:29:15;;;;;;;5.50;4.22;;;;;;;25.52;52.81;94852.19;5049602;28;20180;-80
2022/06/05 00:31:51;;;;;;;7.25;4.05;;;;;;;25.50;52.52;94851.59;5050113;28;20590;-80
2022/06/05 00:34:18;;;;;;;5.47;4.60;;;;;;;25.48;52.84;94851.03;5049567;28;20285;-80
2022/06/05 00:36:59;;;;;;;5.07;4.40;;;;;;;25.44;52.74;94848.06;5049615;28;20287;-81
2022/06/05 00:39:36;;;;;;;6.95;4.10;;;;;;;25.45;52.83;94852.28;5049544;28;20195;-81
2022/06/05 00:42:05;;;;;;;5.35;4.57;;;;;;;25.41;52.90;94858.97;5050809;28;20228;-79
2022/06/05 00:44:36;;;;;;;13.48;4.72;;;;;;;25.40;53.15;94859.22;5053682;28;20199;-79
2022/06/05 00:47:07;;;;;;;5.70;4.80;;;;;;;25.39;53.09;94860.22;5054355;28;20183;-81
2022/06/05 00:49:41;;;;;;;8.48;4.30;;;;;;;25.36;53.02;94853.63;5053981;28;20206;-80
2022/06/05 00:52:10;;;;;;;6.20;4.63;;;;;;;25.35;53.15;94857.28;5053574;28;20685;-79
2022/06/05 00:54:37;;;;;;;11.25;4.50;;;;;;;25.33;53.34;94856.69;5053325;28;20203;-80
2022/06/05 00:57:09;;;;;;;9.60;4.68;;;;;;;25.31;53.22;94852.72;5053502;28;20191;-80
2022/06/05 00:59:36;;;;;;;7.70;4.72;;;;;;;25.25;53.34;94846.53;5053068;28;20183;-80
2022/06/05 01:02:05;;;;;;;4.75;4.25;;;;;;;25.27;53.52;94858.41;5053645;28;20285;-80
2022/06/05 01:04:33;;;;;;;6.03;4.55;;;;;;;25.25;53.39;94852.56;5053271;28;20198;-80
2022/06/05 01:07:00;;;;;;;7.03;4.72;;;;;;;25.12;53.41;94831.84;5053530;28;20190;-80
2022/06/05 01:09:27;;;;;;;5.85;4.70;;;;;;;25.22;53.51;94850.41;5052966;28;20187;-80
2022/06/05 01:12:03;;;;;;;5.28;4.65;;;;;;;25.20;53.76;94846.41;5053288;28;20194;-80
2022/06/05 01:14:45;;;;;;;8.95;4.20;;;;;;;25.15;53.78;94841.88;5052831;28;20203;-80
2022/06/05 01:17:20;;;;;;;8.35;4.57;;;;;;;25.15;54.00;94846.31;5053287;28;20275;-80
2022/06/05 01:19:55;;;;;;;6.65;4.85;;;;;;;25.13;54.16;94850.94;5052979;28;20217;-80
2022/06/05 01:23:02;;;;;;;5.18;4.68;;;;;;;25.08;53.92;94854.25;5053028;28;20225;-80
2022/06/05 01:26:19;;;;;;;7.22;5.40;;;;;;;25.06;54.14;94855.47;5052855;28;20179;-79
2022/06/05 01:28:54;;;;;;;8.85;4.97;;;;;;;25.03;54.29;94851.47;4933381;29;20675;-80
2022/06/05 01:31:27;;;;;;;5.60;4.85;;;;;;;25.02;54.35;94852.50;4933087;29;20560;-80
2022/06/05 01:34:00;;;;;;;10.45;5.38;;;;;;;24.97;54.63;94841.91;4933354;29;20663;-80
2022/06/05 01:36:35;;;;;;;9.73;5.10;;;;;;;24.97;54.48;94847.94;4932990;29;20242;-80
2022/06/05 01:39:07;;;;;;;8.32;5.50;;;;;;;24.95;54.63;94849.97;4933407;29;20682;-79
2022/06/05 01:41:39;;;;;;;6.43;5.15;;;;;;;24.94;54.69;94852.81;4932988;29;20785;-79
2022/06/05 01:44:11;;;;;;;7.15;5.05;;;;;;;24.93;55.07;94853.84;4933335;29;20304;-79
2022/06/05 01:46:39;;;;;;;8.18;4.90;;;;;;;24.92;54.84;94847.03;4933008;29;20191;-80
2022/06/05 01:49:13;;;;;;;10.18;5.43;;;;;;;24.64;55.28;94803.91;4933038;29;20241;-80
2022/06/05 01:51:49;;;;;;;7.40;5.30;;;;;;;24.91;55.08;94848.00;4932996;29;20198;-80
2022/06/05 01:54:20;;;;;;;6.35;5.47;;;;;;;24.89;55.24;94844.84;4932221;29;20206;-80
2022/06/05 01:56:51;;;;;;;5.50;4.88;;;;;;;24.88;55.46;94843.25;4932907;29;20199;-80
2022/06/05 01:59:24;;;;;;;7.18;5.38;;;;;;;24.85;55.54;94844.47;4932619;29;20207;-81
2022/06/05 02:01:56;;;;;;;7.65;4.72;;;;;;;24.81;55.68;94835.47;4936573;28;20621;-80
2022/06/05 02:04:31;;;;;;;6.90;4.85;;;;;;;24.86;55.60;94845.28;5015405;28;20263;-80
2022/06/05 02:07:02;;;;;;;7.30;5.13;;;;;;;24.85;55.63;94836.63;5052000;28;20787;-81
2022/06/05 02:09:34;;;;;;;7.95;4.97;;;;;;;24.60;55.75;94802.75;5051840;28;20695;-81
2022/06/05 02:12:03;;;;;;;8.82;5.22;;;;;;;24.68;55.75;94806.88;5052093;28;20241;-81
2022/06/05 02:14:32;;;;;;;11.30;5.40;;;;;;;24.82;56.01;94831.03;5051852;28;20256;-81
2022/06/05 02:17:00;;;;;;;7.07;5.60;;;;;;;24.82;55.82;94829.22;5052004;28;20557;-79
2022/06/05 02:19:27;;;;;;;7.97;5.15;;;;;;;24.75;56.04;94823.31;5051794;28;20198;-80
2022/06/05 02:22:06;;;;;;;7.25;6.28;;;;;;;24.81;56.06;94837.28;5051921;28;20223;-81
2022/06/05 02:24:33;;;;;;;7.28;5.57;;;;;;;24.74;56.07;94826.91;5051599;28;20191;-79
2022/06/05 02:27:04;;;;;;;6.28;4.88;;;;;;;24.78;55.85;94834.13;5051944;28;20194;-80
2022/06/05 02:29:33;;;;;;;8.07;5.13;;;;;;;24.77;56.25;94837.72;5051247;28;20187;-80
2022/06/05 02:32:14;;;;;;;5.95;5.35;;;;;;;24.76;56.27;94836.16;5051553;28;20688;-80
2022/06/05 02:34:48;;;;;;;8.98;5.38;;;;;;;24.74;56.37;94832.97;5051737;28;20202;-80
2022/06/05 02:37:27;;;;;;;5.50;4.93;;;;;;;24.73;56.39;94835.78;5051767;28;20201;-80
2022/06/05 02:40:04;;;;;;;6.05;5.43;;;;;;;24.68;56.47;94831.22;5051149;28;20666;-80
2022/06/05 02:42:35;;;;;;;8.52;4.90;;;;;;;24.70;56.49;94828.41;5051136;28;20227;-80
2022/06/05 02:45:15;;;;;;;7.15;5.05;;;;;;;24.68;56.65;94828.59;5051161;28;20605;-81
2022/06/05 02:47:48;;;;;;;13.25;5.20;;;;;;;24.67;56.66;94819.16;5051177;28;20227;-80
2022/06/05 02:50:22;;;;;;;7.18;5.25;;;;;;;24.66;56.65;94820.19;5051433;28;20642;-79
2022/06/05 02:52:50;;;;;;;9.13;5.65;;;;;;;24.65;57.01;94823.00;5051432;28;20657;-80
2022/06/05 02:55:20;;;;;;;7.07;5.45;;;;;;;24.64;56.97;94824.03;5051336;28;20381;-80
2022/06/05 02:57:47;;;;;;;7.95;5.07;;;;;;;24.63;57.04;94817.22;5051052;28;20650;-82
2022/06/05 03:00:19;;;;;;;7.72;5.45;;;;;;;24.62;57.22;94815.63;5050940;28;20195;-80
2022/06/05 03:05:32;;;;;;;8.63;5.60;;;;;;;24.60;57.50;94820.28;5050109;28;20194;-81
2022/06/05 03:07:59;;;;;;;10.85;5.45;;;;;;;24.56;57.21;94816.50;5050848;28;20668;-81
2022/06/05 03:10:26;;;;;;;10.82;5.10;;;;;;;24.59;57.40;94823.91;5050985;28;20183;-80
2022/06/05 03:12:53;;;;;;;7.95;5.45;;;;;;;24.59;57.30;94829.16;5050789;28;20198;-81
2022/06/05 03:15:21;;;;;;;11.70;5.22;;;;;;;24.59;57.46;94834.38;5050947;28;20195;-80
2022/06/05 03:17:48;;;;;;;7.90;5.63;;;;;;;24.58;57.56;94832.78;5050915;28;20642;-81
2022/06/05 03:20:17;;;;;;;7.97;5.15;;;;;;;24.58;57.70;94824.94;5051196;28;20850;-80
2022/06/05 03:22:44;;;;;;;12.63;5.60;;;;;;;24.58;57.65;94836.19;5051470;28;20221;-81
2022/06/05 03:25:16;;;;;;;6.30;5.53;;;;;;;24.60;57.33;94842.00;5050983;28;20183;-80
2022/06/05 03:27:43;;;;;;;8.13;5.75;;;;;;;24.61;57.48;94837.56;5050733;28;20581;-80
2022/06/05 03:30:10;;;;;;;6.63;5.40;;;;;;;24.63;57.70;94840.75;5050269;28;20646;-80
2022/06/05 03:32:39;;;;;;;8.38;5.47;;;;;;;24.63;57.56;94841.56;5050552;28;20194;-80
2022/06/05 03:35:06;;;;;;;5.85;5.28;;;;;;;24.67;57.87;94841.91;5050201;28;20662;-81
2022/06/05 03:37:33;;;;;;;8.90;5.65;;;;;;;24.70;57.60;94846.72;5050421;28;20240;-80
2022/06/05 03:40:00;;;;;;;12.30;5.32;;;;;;;24.72;57.59;94848.06;5050359;28;20187;-80
2022/06/05 03:42:27;;;;;;;12.45;5.72;;;;;;;24.75;57.71;94845.03;5050694;28;20223;-80
2022/06/05 03:44:54;;;;;;;9.18;6.15;;;;;;;24.80;57.71;94848.78;5050185;28;20201;-80
2022/06/05 03:47:21;;;;;;;8.98;6.00;;;;;;;24.85;57.71;94848.91;5050417;28;20230;-80
2022/06/05 03:49:49;;;;;;;6.80;5.03;;;;;;;24.89;57.97;94850.06;5049988;28;20593;-81
2022/06/05 03:52:16;;;;;;;8.50;5.72;;;;;;;24.93;57.80;94854.63;5050774;28;20214;-80
2022/06/05 03:54:43;;;;;;;11.07;5.85;;;;;;;24.99;57.64;94855.56;5050605;28;20187;-81
2022/06/05 03:57:10;;;;;;;11.68;5.82;;;;;;;25.03;57.70;94860.13;5050290;28;20205;-80
2022/06/05 03:59:37;;;;;;;8.07;5.63;;;;;;;25.10;57.61;94862.69;5050117;28;20290;-80
2022/06/05 04:02:05;;;;;;;7.90;5.70;;;;;;;25.16;57.60;94868.81;5049811;28;20183;-81
2022/06/05 04:04:32;;;;;;;9.82;5.88;;;;;;;25.20;57.73;94856.88;5050099;28;20222;-81
2022/06/05 04:07:01;;;;;;;11.20;6.28;;;;;;;25.25;58.19;94859.63;5049984;28;20205;-81
2022/06/05 04:09:28;;;;;;;12.65;6.70;;;;;;;25.26;58.29;94851.56;5050500;28;20187;-82
2022/06/05 04:11:54;;;;;;;9.55;5.82;;;;;;;25.30;58.03;94846.66;5049922;28;20179;-80
2022/06/05 04:14:21;;;;;;;11.30;6.05;;;;;;;25.42;57.78;94860.56;5049978;28;20202;-81
2022/06/05 04:16:48;;;;;;;10.25;6.22;;;;;;;25.46;57.92;94856.47;5050934;28;20210;-82
2022/06/05 04:19:15;;;;;;;9.23;6.60;;;;;;;25.55;57.56;94858.75;5054077;28;20195;-81
2022/06/05 04:21:46;;;;;;;11.15;6.70;;;;;;;25.61;57.68;94858.66;5054453;28;20266;-81
2022/06/05 04:24:15;;;;;;;9.98;6.47;;;;;;;25.68;57.33;94854.09;5054325;28;20222;-81
2022/06/05 04:26:43;;;;;;;9.65;6.57;;;;;;;25.71;57.25;94837.94;5054236;28;20194;-82
2022/06/05 04:29:11;;;;;;;12.20;6.72;;;;;;;25.74;57.06;94834.88;5053897;28;20654;-80
2022/06/05 04:31:44;;;;;;;8.63;6.38;;;;;;;25.89;56.99;94842.28;5053741;28;20643;-81
2022/06/05 04:34:13;;;;;;;11.52;6.32;;;;;;;25.96;56.70;94840.34;5054021;28;20712;-81
2022/06/05 04:36:41;;;;;;;9.13;5.47;;;;;;;26.04;56.52;94841.81;5053652;28;20202;-79
2022/06/05 04:39:07;;;;;;;8.82;5.93;;;;;;;26.11;56.23;94839.84;5054140;28;20191;-81
2022/06/05 04:41:36;;;;;;;9.15;6.05;;;;;;;26.10;56.04;94817.31;5054063;28;20223;-81
2022/06/05 04:44:05;;;;;;;8.55;5.80;;;;;;;26.25;55.92;94828.09;5053710;28;20706;-80
2022/06/05 04:46:33;;;;;;;10.30;6.28;;;;;;;26.36;56.08;94838.78;5053903;28;20198;-81
2022/06/05 04:49:00;;;;;;;10.77;6.10;;;;;;;26.44;56.13;94834.00;5053558;28;20237;-80
2022/06/05 04:51:27;;;;;;;7.88;5.70;;;;;;;26.54;56.10;94832.59;5053853;28;20657;-81
2022/06/05 04:53:56;;;;;;;11.65;6.60;;;;;;;26.62;56.27;94825.16;5053537;28;20194;-81
2022/06/05 04:56:25;;;;;;;9.13;6.15;;;;;;;26.70;55.95;94830.03;5053654;28;20278;-80
2022/06/05 04:58:54;;;;;;;8.90;6.05;;;;;;;26.82;56.29;94842.31;5053466;28;20198;-81
2022/06/05 05:01:23;;;;;;;10.13;6.72;;;;;;;26.91;55.70;94841.69;5053788;28;20316;-80
2022/06/05 05:03:53;;;;;;;11.32;5.88;;;;;;;27.03;55.82;94839.03;5054321;28;20739;-81
2022/06/05 05:06:21;;;;;;;9.25;6.05;;;;;;;27.13;55.80;94841.03;5054349;28;20195;-80
2022/06/05 05:08:48;;;;;;;6.90;6.20;;;;;;;27.26;56.16;94833.66;5054104;28;20195;-81
2022/06/05 05:11:15;;;;;;;7.38;5.32;;;;;;;27.58;56.58;94848.06;5054142;28;20569;-82
2022/06/05 05:13:42;;;;;;;7.97;5.55;;;;;;;27.91;56.97;94844.63;5053494;28;20551;-82
2022/06/05 05:16:11;;;;;;;7.35;4.88;;;;;;;28.23;56.97;94829.00;5053879;28;20222;-81
2022/06/05 05:18:38;;;;;;;8.90;5.35;;;;;;;28.84;56.97;94857.84;5054590;28;20198;-81
2022/06/05 05:21:07;;;;;;;7.30;5.20;;;;;;;29.40;56.68;94856.56;5054637;28;20194;-81
2022/06/05 05:23:34;;;;;;;5.65;4.93;;;;;;;30.01;55.62;94864.16;5052679;28;20207;-81
2022/06/05 05:26:08;;;;;;;8.32;4.95;;;;;;;30.70;54.31;94860.50;5053078;28;20689;-79
2022/06/05 05:28:36;;;;;;;6.30;5.70;;;;;;;31.34;52.87;94862.00;5051487;28;20190;-80
2022/06/05 05:31:03;;;;;;;6.82;5.45;;;;;;;32.00;51.36;94863.88;5052945;28;20194;-82
2022/06/05 05:33:31;;;;;;;8.27;5.47;;;;;;;32.65;50.39;94864.72;5052455;28;20187;-80
2022/06/05 05:35:58;;;;;;;5.65;5.03;;;;;;;33.22;48.80;94860.72;5053155;28;20214;-81
2022/06/05 05:38:25;;;;;;;15.68;5.88;;;;;;;33.93;47.71;94876.03;5052842;28;20811;-80
2022/06/05 05:43:36;;;;;;;7.32;5.15;;;;;;;35.25;44.76;94874.81;5052466;28;20225;-80
2022/06/05 05:46:03;;;;;;;7.72;4.70;;;;;;;35.81;43.49;94876.63;5052974;28;20191;-80
2022/06/05 05:48:32;;;;;;;8.23;5.05;;;;;;;36.38;42.60;94871.88;5052396;28;20238;-80
2022/06/05 05:50:59;;;;;;;8.90;4.80;;;;;;;36.94;41.77;94867.31;5052684;28;20179;-81
2022/06/05 05:53:25;;;;;;;6.18;4.85;;;;;;;37.51;40.97;94875.66;5052401;28;20202;-79
2022/06/05 05:55:52;;;;;;;6.25;5.03;;;;;;;38.05;40.11;94874.59;5052784;28;20214;-79
2022/06/05 05:58:19;;;;;;;6.90;4.50;;;;;;;38.60;39.41;94870.69;5052681;28;20195;-81
2022/06/05 06:00:46;;;;;;;11.80;5.60;;;;;;;39.12;38.48;94874.28;5052644;28;20183;-80
2022/06/05 06:03:13;;;;;;;9.98;4.95;;;;;;;39.64;37.64;94874.28;5052828;28;20203;-79
2022/06/05 06:05:41;;;;;;;7.78;5.57;;;;;;;40.11;37.12;94871.69;5053055;28;20198;-80
2022/06/05 06:08:08;;;;;;;9.20;6.07;;;;;;;40.62;36.33;94877.94;5053129;28;20179;-80
2022/06/05 06:10:35;;;;;;;7.43;4.95;;;;;;;41.06;35.11;94878.47;5052725;28;20191;-80
2022/06/05 06:13:02;;;;;;;9.73;5.32;;;;;;;41.53;34.91;94889.00;5052803;28;20194;-80
2022/06/05 06:15:29;;;;;;;8.63;5.50;;;;;;;41.97;33.98;94891.28;5055302;28;20191;-79
2022/06/05 06:17:56;;;;;;;9.05;5.40;;;;;;;42.32;33.75;94881.75;5054198;28;20194;-81
2022/06/05 06:20:22;;;;;;;7.10;5.25;;;;;;;42.79;33.16;94899.34;5054093;28;20187;-80
2022/06/05 06:22:51;;;;;;;8.27;5.50;;;;;;;43.16;32.62;94883.16;5054281;28;20186;-81
2022/06/05 06:25:18;;;;;;;9.57;5.38;;;;;;;43.56;32.32;94897.41;5053826;28;20186;-80
2022/06/05 06:27:44;;;;;;;5.68;5.05;;;;;;;43.93;31.39;94885.72;5053381;28;20248;-81
2022/06/05 06:30:12;;;;;;;12.45;6.03;;;;;;;44.28;31.00;94888.53;5053300;28;20201;-81
2022/06/05 06:32:39;;;;;;;11.35;5.32;;;;;;;44.58;30.55;94883.47;5053108;28;20198;-81
2022/06/05 06:35:06;;;;;;;6.25;5.10;;;;;;;44.93;30.06;94888.91;5055480;28;20187;-80
2022/06/05 06:37:33;;;;;;;10.55;5.53;;;;;;;45.23;30.05;94883.00;5066699;28;20200;-81
2022/06/05 06:40:02;;;;;;;10.15;5.00;;;;;;;45.51;29.44;94885.50;5058350;28;20202;-81
2022/06/05 06:42:28;;;;;;;10.77;5.53;;;;;;;45.77;29.31;94885.63;5055285;28;20190;-80
2022/06/05 06:44:56;;;;;;;8.65;5.70;;;;;;;46.04;28.97;94877.63;5052466;28;20240;-80
2022/06/05 06:47:23;;;;;;;10.32;5.28;;;;;;;46.26;28.85;94881.50;5051877;28;20646;-81
2022/06/05 06:49:50;;;;;;;7.93;5.25;;;;;;;46.49;28.58;94893.06;5052055;28;20189;-81
2022/06/05 06:52:17;;;;;;;5.15;4.38;;;;;;;46.71;28.38;94888.78;5051248;28;20213;-80
2022/06/05 06:54:44;;;;;;;6.88;5.15;;;;;;;46.87;27.49;94885.91;5051896;28;20186;-81
2022/06/05 06:57:12;;;;;;;10.07;4.63;;;;;;;47.09;27.87;94883.53;5051611;28;20190;-80
2022/06/05 06:59:39;;;;;;;5.50;4.80;;;;;;;47.23;27.56;94884.47;5051347;28;20194;-80
2022/06/05 07:02:06;;;;;;;9.05;5.07;;;;;;;47.42;26.84;94880.09;5051055;28;20202;-81
2022/06/05 07:04:32;;;;;;;6.93;5.13;;;;;;;47.58;27.19;94879.84;5051004;28;20221;-80
2022/06/05 07:07:00;;;;;;;6.25;4.40;;;;;;;47.74;26.73;94878.50;5051076;28;20576;-81
2022/06/05 07:09:27;;;;;;;6.72;4.95;;;;;;;47.81;26.43;94860.78;5050650;28;20186;-81
2022/06/05 07:11:54;;;;;;;6.90;4.30;;;;;;;48.03;26.57;94876.13;5051265;28;20186;-81
2022/06/05 07:14:22;;;;;;;9.50;4.90;;;;;;;48.17;25.87;94878.16;5051004;28;20194;-80
2022/06/05 07:16:49;;;;;;;7.40;4.65;;;;;;;48.29;26.33;94872.47;5050905;28;20190;-82
2022/06/05 07:19:17;;;;;;;8.82;4.40;;;;;;;48.42;25.75;94871.03;5051903;28;20266;-81
2022/06/05 07:21:44;;;;;;;5.68;4.40;;;;;;;48.55;25.98;94879.66;5050958;28;20194;-83
2022/06/05 07:24:11;;;;;;;7.43;4.32;;;;;;;48.61;25.49;94878.13;5050677;28;20214;-81
2022/06/05 07:26:38;;;;;;;7.90;3.97;;;;;;;48.74;25.34;94873.19;5051192;28;20191;-80
2022/06/05 07:29:05;;;;;;;5.50;4.10;;;;;;;48.77;25.27;94863.53;5050561;28;20190;-80
2022/06/05 07:31:33;;;;;;;6.25;4.30;;;;;;;48.85;24.89;94874.06;5050724;28;20198;-80
2022/06/05 07:34:02;;;;;;;5.05;3.92;;;;;;;48.84;24.69;94858.91;5050636;28;20201;-80
2022/06/05 07:36:29;;;;;;;6.95;3.97;;;;;;;48.83;24.56;94853.84;5050650;28;20206;-81
2022/06/05 07:38:57;;;;;;;9.50;4.07;;;;;;;48.94;25.06;94877.22;5050822;28;20187;-82
2022/06/05 07:41:27;;;;;;;4.55;3.90;;;;;;;48.96;25.00;94874.09;5051442;28;20248;-81
2022/06/05 07:43:55;;;;;;;6.43;3.50;;;;;;;48.82;24.84;94844.16;5050430;28;20230;-80
2022/06/05 07:46:23;;;;;;;3.63;3.30;;;;;;;48.90;24.37;94856.63;5050295;28;20194;-80
2022/06/05 07:48:51;;;;;;;5.78;3.72;;;;;;;48.87;24.32;94862.81;5050216;28;20226;-80
2022/06/05 07:56:50;;;;;;;4.97;3.90;;;;;;;48.70;24.46;94847.94;5050106;28;20239;-82
2022/06/05 07:59:17;;;;;;;4.30;3.90;;;;;;;48.65;24.60;94851.00;5050294;28;20208;-81
2022/06/05 08:01:44;;;;;;;8.45;3.97;;;;;;;48.57;24.26;94846.69;5050255;28;20194;-80
2022/06/05 08:04:12;;;;;;;6.15;3.72;;;;;;;48.50;24.49;94847.44;5050206;28;20214;-81
2022/06/05 08:06:39;;;;;;;5.47;3.70;;;;;;;48.45;24.30;94845.84;5050454;28;20198;-81
2022/06/05 08:09:09;;;;;;;5.72;3.92;;;;;;;48.30;24.54;94840.66;5050160;28;20673;-80
2022/06/05 08:11:36;;;;;;;7.60;3.45;;;;;;;48.27;24.55;94836.75;5050114;28;20190;-80
2022/06/05 08:14:04;;;;;;;5.28;3.60;;;;;;;48.23;24.88;94847.63;5050161;28;20269;-82
2022/06/05 08:16:32;;;;;;;7.35;4.00;;;;;;;48.12;24.72;94848.69;5049892;28;20193;-83
2022/06/05 08:18:59;;;;;;;5.35;3.25;;;;;;;48.07;24.69;94846.31;5050178;28;20256;-81
2022/06/05 08:21:27;;;;;;;4.18;3.72;;;;;;;47.98;24.71;94857.44;5050282;28;20187;-82
2022/06/05 08:23:54;;;;;;;4.60;3.55;;;;;;;47.86;24.21;94839.50;5050299;28;20275;-82
2022/06/05 08:26:21;;;;;;;6.95;3.90;;;;;;;47.78;24.65;94850.66;5049948;28;20183;-82
2022/06/05 08:28:47;;;;;;;6.50;3.85;;;;;;;47.67;24.93;94848.63;5049846;28;20187;-83
2022/06/05 08:31:14;;;;;;;3.97;3.38;;;;;;;47.56;24.76;94845.00;5049546;28;20809;-82
2022/06/05 08:33:41;;;;;;;4.32;3.13;;;;;;;47.47;24.82;94844.53;5050179;28;20202;-81
2022/06/05 08:36:08;;;;;;;4.57;3.30;;;;;;;47.37;24.53;94839.75;5049813;28;20217;-80
2022/06/05 08:41:37;;;;;;;5.75;3.65;;;;;;;47.11;25.08;94844.09;5049821;28;20182;-82
2022/06/05 08:44:14;;;;;;;4.28;3.30;;;;;;;46.98;24.87;94840.84;5049678;28;20716;-81
2022/06/05 08:46:45;;;;;;;8.73;3.40;;;;;;;46.85;24.71;94844.09;5049992;28;20190;-81
2022/06/05 08:49:16;;;;;;;3.40;3.05;;;;;;;46.73;25.03;94847.81;5050334;28;20206;-80
2022/06/05 08:51:53;;;;;;;5.30;3.22;;;;;;;46.58;24.66;94846.03;5050125;28;20206;-81
2022/06/05 08:54:25;;;;;;;7.05;3.17;;;;;;;46.41;24.90;94842.69;5049681;28;20205;-79
2022/06/05 08:57:00;;;;;;;3.80;3.03;;;;;;;46.19;24.85;94836.16;5050027;28;20185;-80
2022/06/05 08:59:39;;;;;;;5.15;3.08;;;;;;;46.14;24.76;94841.84;5049709;28;20222;-80
2022/06/05 09:02:21;;;;;;;3.13;2.80;;;;;;;45.98;24.75;94835.78;5049864;28;20183;-81
2022/06/05 09:04:53;;;;;;;3.40;2.70;;;;;;;45.80;25.17;94830.06;5053217;28;20217;-81
2022/06/05 09:07:23;;;;;;;3.25;2.58;;;;;;;45.64;24.63;94829.38;5053476;28;20186;-80
2022/06/05 09:09:56;;;;;;;3.00;2.80;;;;;;;45.50;25.00;94832.59;5053061;28;20191;-81
2022/06/05 09:12:28;;;;;;;4.35;2.90;;;;;;;45.33;25.33;94836.50;5053326;28;20273;-80
2022/06/05 09:15:01;;;;;;;3.33;3.00;;;;;;;45.16;24.79;94835.00;5052949;28;20191;-81
2022/06/05 09:17:29;;;;;;;4.95;2.53;;;;;;;44.99;25.14;94824.59;5053015;28;20201;-81
2022/06/05 09:19:58;;;;;;;4.63;3.03;;;;;;;44.81;24.81;94814.22;5052870;28;20574;-81
2022/06/05 09:22:36;;;;;;;5.82;2.78;;;;;;;44.68;24.93;94817.41;5053349;28;20191;-80
2022/06/05 09:25:20;;;;;;;3.13;2.63;;;;;;;44.47;25.25;94815.75;5053098;28;20218;-81
2022/06/05 09:28:06;;;;;;;3.72;2.60;;;;;;;44.35;25.40;94823.97;5052862;28;20194;-82
2022/06/05 09:30:39;;;;;;;3.22;2.55;;;;;;;44.17;25.44;94820.81;5053177;28;20240;-81
2022/06/05 09:33:16;;;;;;;5.32;2.70;;;;;;;43.99;25.04;94815.00;5052692;28;20713;-81
2022/06/05 09:35:47;;;;;;;4.35;2.35;;;;;;;43.82;25.17;94818.00;5055721;28;20182;-80
2022/06/05 09:38:22;;;;;;;6.50;3.20;;;;;;;43.64;25.29;94814.09;5055262;28;20193;-80
2022/06/05 09:41:07;;;;;;;6.15;2.47;;;;;;;43.46;25.42;94808.25;5056555;28;20201;-81
2022/06/05 09:43:56;;;;;;;4.65;2.50;;;;;;;43.26;25.50;94807.28;5053376;28;20207;-82
2022/06/05 09:46:48;;;;;;;2.78;2.58;;;;;;;43.06;25.44;94812.53;5053337;28;20190;-81
2022/06/05 09:49:21;;;;;;;4.97;2.88;;;;;;;42.85;25.19;94814.59;5052763;28;20571;-81
2022/06/05 09:51:47;;;;;;;7.47;2.47;;;;;;;42.69;25.25;94811.03;5052515;28;20187;-81
2022/06/05 09:54:21;;;;;;;2.88;2.40;;;;;;;42.48;25.40;94803.84;5052960;28;20198;-81
2022/06/05 09:59:51;;;;;;;3.85;2.65;;;;;;;42.08;25.85;94798.38;5052470;28;20194;-81
2022/06/05 10:02:22;;;;;;;5.93;2.28;;;;;;;41.95;26.02;94804.84;5052702;28;20198;-80
2022/06/05 10:04:50;;;;;;;3.47;2.30;;;;;;;41.81;26.42;94800.59;5052726;28;20211;-82
2022/06/05 10:07:21;;;;;;;3.08;2.38;;;;;;;41.66;25.85;94801.19;5052829;28;20191;-79
2022/06/05 10:09:49;;;;;;;4.95;2.78;;;;;;;41.52;26.18;94798.81;5053824;28;20213;-80
2022/06/05 10:12:25;;;;;;;5.35;2.50;;;;;;;41.38;26.78;94790.28;5053669;28;20187;-79
2022/06/05 10:14:58;;;;;;;7.03;2.90;;;;;;;41.23;26.78;94797.00;5053269;28;20236;-81
2022/06/05 10:17:43;;;;;;;3.08;2.30;;;;;;;41.06;26.53;94792.59;5054357;28;20187;-80
2022/06/05 10:20:33;;;;;;;2.83;2.58;;;;;;;40.82;26.71;94766.41;5052879;28;20190;-82
2022/06/05 10:23:09;;;;;;;3.63;2.25;;;;;;;40.65;26.74;94755.81;5053695;28;20201;-80
2022/06/05 10:25:43;;;;;;;6.57;3.00;;;;;;;40.66;26.93;94773.47;5052701;28;20210;-80
2022/06/05 10:28:16;;;;;;;4.68;2.58;;;;;;;40.58;27.21;94779.69;5051479;28;20661;-81
2022/06/05 10:30:55;;;;;;;4.45;2.50;;;;;;;40.45;27.21;94786.84;5051893;28;20218;-79
2022/06/05 10:33:33;;;;;;;5.40;2.58;;;;;;;40.32;27.52;94772.56;5052180;28;20194;-80
2022/06/05 10:36:09;;;;;;;6.82;2.70;;;;;;;40.19;27.21;94770.13;5051608;28;20641;-81
2022/06/05 10:38:43;;;;;;;5.53;2.95;;;;;;;40.05;27.46;94765.75;5051579;28;20244;-81
2022/06/05 10:41:18;;;;;;;4.15;2.70;;;;;;;39.95;27.50;94754.63;5052235;28;20179;-80
2022/06/05 10:44:06;;;;;;;3.53;2.63;;;;;;;39.84;27.89;94752.28;5051537;28;20193;-80
2022/06/05 10:46:34;;;;;;;3.25;2.70;;;;;;;39.73;27.95;94755.69;5051474;28;20191;-80
2022/06/05 10:49:10;;;;;;;3.40;2.60;;;;;;;39.64;27.95;94744.97;5051362;28;20602;-80
2022/06/05 10:51:47;;;;;;;3.20;2.40;;;;;;;39.57;27.94;94742.78;5051681;28;20193;-81
2022/06/05 10:54:28;;;;;;;4.60;2.90;;;;;;;39.51;28.19;94740.56;5051575;28;20668;-82
2022/06/05 10:57:00;;;;;;;6.68;2.72;;;;;;;39.41;28.11;94749.75;5051201;28;20222;-81
2022/06/05 10:59:39;;;;;;;5.97;3.45;;;;;;;39.30;28.36;94743.19;5051334;28;20195;-81
2022/06/05 11:02:41;;;;;;;2.63;2.42;;;;;;;39.08;28.51;94722.75;5051113;28;20195;-81
2022/06/05 11:05:27;;;;;;;7.32;2.83;;;;;;;39.14;28.60;94749.00;5035602;28;20237;-80
2022/06/05 11:08:09;;;;;;;4.70;2.58;;;;;;;38.88;28.62;94702.78;5051869;28;20183;-80
2022/06/05 11:13:44;;;;;;;2.60;2.40;;;;;;;38.62;28.73;94676.81;5051225;28;20274;-79
2022/06/05 11:16:25;;;;;;;4.88;2.78;;;;;;;38.91;29.00;94731.56;5051790;28;20282;-80
2022/06/05 11:19:09;;;;;;;4.55;2.65;;;;;;;38.88;28.60;94729.53;5050974;28;20187;-80
2022/06/05 11:21:37;;;;;;;4.25;2.70;;;;;;;38.78;28.75;94738.66;5050949;28;20198;-81
2022/06/05 11:24:12;;;;;;;6.28;2.80;;;;;;;38.70;28.94;94733.28;5051192;28;20195;-78
2022/06/05 11:27:02;;;;;;;2.53;2.30;;;;;;;38.61;28.92;94723.38;5050365;28;20190;-79
2022/06/05 11:29:35;;;;;;;3.53;2.30;;;;;;;38.53;28.92;94716.13;5050926;28;20230;-80
2022/06/05 11:32:25;;;;;;;3.42;2.40;;;;;;;38.46;29.00;94715.81;5050940;28;20195;-79
2022/06/05 11:34:58;;;;;;;5.07;2.80;;;;;;;38.39;29.25;94713.63;5051022;28;20214;-79
2022/06/05 11:37:42;;;;;;;5.53;2.67;;;;;;;38.29;29.23;94719.22;5050900;28;20190;-80
2022/06/05 11:40:21;;;;;;;3.17;2.58;;;;;;;38.26;29.19;94725.22;5050459;28;20195;-79
2022/06/05 11:43:14;;;;;;;3.85;2.00;;;;;;;38.09;29.19;94687.78;5050722;28;20178;-80
2022/06/05 11:45:52;;;;;;;2.00;1.80;;;;;;;38.13;28.87;94705.53;5050470;28;20682;-80
2022/06/05 11:48:29;;;;;;;4.78;2.33;;;;;;;38.10;28.85;94711.50;5050474;28;20713;-81
2022/06/05 11:51:05;;;;;;;4.05;2.25;;;;;;;37.98;29.02;94700.63;5050275;28;20194;-81
2022/06/05 11:53:40;;;;;;;3.25;2.15;;;;;;;37.99;29.00;94704.06;5050437;28;20187;-81
2022/06/05 11:56:30;;;;;;;2.95;2.40;;;;;;;37.96;29.17;94710.84;5050329;28;20646;-80
2022/06/05 11:59:05;;;;;;;2.42;2.22;;;;;;;37.94;29.18;94709.56;5050310;28;20187;-79
2022/06/05 12:01:37;;;;;;;4.00;2.55;;;;;;;37.86;29.27;94687.09;5050489;28;20190;-79
2022/06/05 12:04:18;;;;;;;2.72;2.33;;;;;;;37.86;29.31;94703.88;5049962;28;20187;-81
2022/06/05 12:06:49;;;;;;;4.82;2.72;;;;;;;37.84;29.20;94707.94;5050438;28;20218;-80
2022/06/05 12:09:19;;;;;;;3.80;1.80;;;;;;;37.80;29.26;94698.97;5053596;28;20206;-80
2022/06/05 12:11:52;;;;;;;3.92;2.38;;;;;;;37.67;29.43;94684.66;5050808;28;20192;-80